createdAt,value
2017-07-30T00:00:44.829Z,1009.21
2017-07-30T00:02:07.610Z,1009.16
2017-07-30T00:03:29.801Z,1009.15
2017-07-30T00:04:51.669Z,1009.15
2017-07-30T00:06:13.909Z,1009.12
2017-07-30T00:07:36.361Z,1009.07
2017-07-30T00:08:57.881Z,1009.11
2017-07-30T00:10:20.021Z,1009.06
2017-07-30T00:11:42.235Z,1009.05
2017-07-30T00:13:04.645Z,1009.05
2017-07-30T00:14:26.830Z,1009
2017-07-30T00:15:49.277Z,1008.95
2017-07-30T00:17:11.107Z,1009.02
2017-07-30T00:18:33.865Z,1008.98
2017-07-30T00:19:55.740Z,1009.01
2017-07-30T00:21:17.687Z,1009
2017-07-30T00:22:39.207Z,1008.96
2017-07-30T00:24:01.534Z,1008.94
2017-07-30T00:25:23.207Z,1008.94
2017-07-30T00:26:45.097Z,1008.94
2017-07-30T00:28:06.730Z,1008.98
2017-07-30T00:29:29.204Z,1008.93
2017-07-30T00:30:51.363Z,1008.93
2017-07-30T00:32:12.881Z,1008.98
2017-07-30T00:33:34.701Z,1008.97
2017-07-30T00:34:56.834Z,1008.94
2017-07-30T00:36:18.761Z,1008.92
2017-07-30T00:37:40.900Z,1008.89
2017-07-30T00:39:02.481Z,1008.97
2017-07-30T00:40:25.420Z,1008.91
2017-07-30T00:41:47.244Z,1008.92
2017-07-30T00:43:09.144Z,1008.88
2017-07-30T00:44:31.301Z,1008.88
2017-07-30T00:45:53.459Z,1008.89
2017-07-30T00:47:15.726Z,1008.88
2017-07-30T00:48:37.865Z,1008.89
2017-07-30T00:49:59.802Z,1008.88
2017-07-30T00:51:22.337Z,1008.89
2017-07-30T00:52:44.177Z,1008.91
2017-07-30T00:54:06.449Z,1008.87
2017-07-30T00:55:28.620Z,1008.85
2017-07-30T00:56:51.033Z,1008.92
2017-07-30T00:58:12.621Z,1008.91
2017-07-30T00:59:34.827Z,1008.93
2017-07-30T01:00:56.670Z,1008.97
2017-07-30T01:02:19.131Z,1008.95
2017-07-30T01:03:40.660Z,1008.93
2017-07-30T01:05:02.826Z,1008.94
2017-07-30T01:06:24.962Z,1008.88
2017-07-30T01:07:47.554Z,1008.86
2017-07-30T01:09:09.725Z,1008.78
2017-07-30T01:10:31.572Z,1008.81
2017-07-30T01:11:53.800Z,1008.79
2017-07-30T01:13:15.573Z,1008.73
2017-07-30T01:14:37.504Z,1008.72
2017-07-30T01:15:59.342Z,1008.72
2017-07-30T01:17:21.474Z,1008.71
2017-07-30T01:18:43.907Z,1008.65
2017-07-30T01:20:05.744Z,1008.68
2017-07-30T01:21:27.590Z,1008.58
2017-07-30T01:22:49.432Z,1008.62
2017-07-30T01:24:11.502Z,1008.59
2017-07-30T01:25:33.399Z,1008.54
2017-07-30T01:26:55.240Z,1008.57
2017-07-30T01:28:17.440Z,1008.56
2017-07-30T01:29:39.932Z,1008.51
2017-07-30T01:31:01.793Z,1008.54
2017-07-30T01:32:23.984Z,1008.49
2017-07-30T01:33:46.122Z,1008.46
2017-07-30T01:35:08.246Z,1008.49
2017-07-30T01:36:30.390Z,1008.47
2017-07-30T01:37:52.998Z,1008.47
2017-07-30T01:39:14.540Z,1008.46
2017-07-30T01:40:36.309Z,1008.49
2017-07-30T01:41:58.169Z,1008.48
2017-07-30T01:43:20.072Z,1008.45
2017-07-30T01:44:42.009Z,1008.48
2017-07-30T01:46:04.141Z,1008.48
2017-07-30T01:47:26.060Z,1008.46
2017-07-30T01:48:47.980Z,1008.46
2017-07-30T01:50:09.841Z,1008.43
2017-07-30T01:51:32.560Z,1008.41
2017-07-30T01:52:54.730Z,1008.42
2017-07-30T01:54:16.281Z,1008.45
2017-07-30T01:55:37.791Z,1008.44
2017-07-30T01:57:00.528Z,1008.43
2017-07-30T01:58:22.692Z,1008.43
2017-07-30T01:59:44.843Z,1008.41
2017-07-30T02:01:06.990Z,1008.43
2017-07-30T02:02:29.534Z,1008.4
2017-07-30T02:03:51.160Z,1008.4
2017-07-30T02:05:13.349Z,1008.41
2017-07-30T02:06:34.856Z,1008.44
2017-07-30T02:07:56.720Z,1008.43
2017-07-30T02:09:19.229Z,1008.45
2017-07-30T02:10:41.051Z,1008.42
2017-07-30T02:12:03.200Z,1008.43
2017-07-30T02:13:25.352Z,1008.39
2017-07-30T02:14:47.532Z,1008.36
2017-07-30T02:16:09.510Z,1008.36
2017-07-30T02:17:31.634Z,1008.32
2017-07-30T02:18:53.735Z,1008.34
2017-07-30T02:20:16.265Z,1008.36
2017-07-30T02:21:38.240Z,1008.35
2017-07-30T02:23:00.158Z,1008.4
2017-07-30T02:24:22.990Z,1008.36
2017-07-30T02:25:45.450Z,1008.41
2017-07-30T02:27:07.700Z,1008.43
2017-07-30T02:28:29.847Z,1008.45
2017-07-30T02:29:51.949Z,1008.47
2017-07-30T02:31:13.481Z,1008.44
2017-07-30T02:32:35.942Z,1008.51
2017-07-30T02:33:58.496Z,1008.48
2017-07-30T02:35:20.281Z,1008.51
2017-07-30T02:36:42.259Z,1008.5
2017-07-30T02:38:04.110Z,1008.5
2017-07-30T02:39:26.584Z,1008.53
2017-07-30T02:40:49.062Z,1008.53
2017-07-30T02:42:10.907Z,1008.44
2017-07-30T02:43:32.751Z,1008.47
2017-07-30T02:44:54.642Z,1008.46
2017-07-30T02:46:17.041Z,1008.48
2017-07-30T02:47:39.206Z,1008.43
2017-07-30T02:49:00.400Z,1008.45
2017-07-30T02:50:22.901Z,1008.46
2017-07-30T02:51:44.995Z,1008.47
2017-07-30T02:53:07.131Z,1008.52
2017-07-30T02:54:29.689Z,1008.54
2017-07-30T02:55:51.287Z,1008.59
2017-07-30T02:57:13.410Z,1008.61
2017-07-30T02:58:35.555Z,1008.6
2017-07-30T02:59:57.161Z,1008.52
2017-07-30T03:01:18.714Z,1008.58
2017-07-30T03:02:40.871Z,1008.6
2017-07-30T03:04:02.801Z,1008.53
2017-07-30T03:05:25.308Z,1008.5
2017-07-30T03:06:47.130Z,1008.46
2017-07-30T03:08:09.252Z,1008.5
2017-07-30T03:09:31.524Z,1008.46
2017-07-30T03:10:53.668Z,1008.43
2017-07-30T03:12:15.610Z,1008.45
2017-07-30T03:13:38.012Z,1008.45
2017-07-30T03:14:59.212Z,1008.37
2017-07-30T03:16:21.370Z,1008.33
2017-07-30T03:17:43.840Z,1008.3
2017-07-30T03:19:06.235Z,1008.28
2017-07-30T03:20:28.141Z,1008.25
2017-07-30T03:21:49.744Z,1008.2
2017-07-30T03:23:11.260Z,1008.19
2017-07-30T03:24:33.350Z,1008.22
2017-07-30T03:25:55.178Z,1008.16
2017-07-30T03:27:17.020Z,1008.18
2017-07-30T03:28:38.842Z,1008.15
2017-07-30T03:30:01.562Z,1008.14
2017-07-30T03:31:23.161Z,1008.13
2017-07-30T03:32:45.052Z,1008.12
2017-07-30T03:34:07.200Z,1008.13
2017-07-30T03:35:29.279Z,1008.12
2017-07-30T03:36:51.120Z,1008.14
2017-07-30T03:38:12.950Z,1008.09
2017-07-30T03:39:35.094Z,1008.1
2017-07-30T03:40:58.041Z,1008.02
2017-07-30T03:42:19.879Z,1008.01
2017-07-30T03:43:41.722Z,1007.95
2017-07-30T03:45:03.669Z,1007.94
2017-07-30T03:46:25.165Z,1007.9
2017-07-30T03:47:46.664Z,1007.85
2017-07-30T03:49:08.501Z,1007.81
2017-07-30T03:50:30.042Z,1007.7
2017-07-30T03:51:52.592Z,1007.65
2017-07-30T03:53:14.746Z,1007.63
2017-07-30T03:54:36.311Z,1007.6
2017-07-30T03:55:58.475Z,1007.6
2017-07-30T03:57:21.227Z,1007.57
2017-07-30T03:58:43.372Z,1007.54
2017-07-30T04:00:05.251Z,1007.58
2017-07-30T04:01:27.840Z,1007.56
2017-07-30T04:02:49.636Z,1007.53
2017-07-30T04:04:11.870Z,1007.52
2017-07-30T04:05:33.500Z,1007.47
2017-07-30T04:06:54.695Z,1007.45
2017-07-30T04:08:16.770Z,1007.52
2017-07-30T04:09:38.280Z,1007.45
2017-07-30T04:11:00.469Z,1007.49
2017-07-30T04:12:23.121Z,1007.41
2017-07-30T04:13:45.032Z,1007.37
2017-07-30T04:15:06.891Z,1007.36
2017-07-30T04:16:29.082Z,1007.38
2017-07-30T04:17:51.011Z,1007.36
2017-07-30T04:19:12.561Z,1007.34
2017-07-30T04:20:34.392Z,1007.28
2017-07-30T04:21:56.253Z,1007.25
2017-07-30T04:23:18.402Z,1007.28
2017-07-30T04:24:40.503Z,1007.29
2017-07-30T04:26:02.348Z,1007.29
2017-07-30T04:27:23.870Z,1007.2
2017-07-30T04:28:45.701Z,1007.23
2017-07-30T04:30:08.460Z,1007.24
2017-07-30T04:31:30.792Z,1007.31
2017-07-30T04:32:52.420Z,1007.31
2017-07-30T04:34:14.598Z,1007.32
2017-07-30T04:35:36.421Z,1007.36
2017-07-30T04:36:58.250Z,1007.39
2017-07-30T04:38:20.464Z,1007.41
2017-07-30T04:39:42.611Z,1007.39
2017-07-30T04:41:04.713Z,1007.4
2017-07-30T04:42:26.551Z,1007.31
2017-07-30T04:43:49.128Z,1007.34
2017-07-30T04:45:11.598Z,1007.34
2017-07-30T04:46:34.007Z,1007.33
2017-07-30T04:47:56.220Z,1007.28
2017-07-30T04:49:18.100Z,1007.18
2017-07-30T04:50:39.930Z,1007.16
2017-07-30T04:52:02.461Z,1007.12
2017-07-30T04:53:23.984Z,1007.13
2017-07-30T04:54:45.501Z,1007.07
2017-07-30T04:56:07.318Z,1007.06
2017-07-30T04:57:29.557Z,1007.1
2017-07-30T04:58:51.422Z,1007.1
2017-07-30T05:00:13.619Z,1007.1
2017-07-30T05:01:35.194Z,1007.12
2017-07-30T05:02:56.981Z,1007.13
2017-07-30T05:04:18.632Z,1007.11
2017-07-30T05:05:40.797Z,1007.05
2017-07-30T05:07:03.039Z,1006.99
2017-07-30T05:08:25.175Z,1006.96
2017-07-30T05:09:47.050Z,1006.93
2017-07-30T05:11:08.895Z,1006.97
2017-07-30T05:12:31.160Z,1006.99
2017-07-30T05:13:53.303Z,1007.02
2017-07-30T05:15:15.191Z,1007.04
2017-07-30T05:16:37.044Z,1007
2017-07-30T05:17:58.894Z,1006.98
2017-07-30T05:19:20.467Z,1006.96
2017-07-30T05:20:42.290Z,1006.99
2017-07-30T05:22:04.273Z,1006.99
2017-07-30T05:23:25.530Z,1006.87
2017-07-30T05:24:47.687Z,1006.95
2017-07-30T05:26:09.849Z,1006.89
2017-07-30T05:27:31.439Z,1006.94
2017-07-30T05:28:53.597Z,1006.99
2017-07-30T05:30:15.582Z,1006.89
2017-07-30T05:31:37.110Z,1006.91
2017-07-30T05:32:59.559Z,1006.87
2017-07-30T05:34:20.772Z,1006.9
2017-07-30T05:35:43.027Z,1006.89
2017-07-30T05:37:05.179Z,1006.95
2017-07-30T05:38:26.398Z,1006.98
2017-07-30T05:39:48.260Z,1006.99
2017-07-30T05:41:09.773Z,1007.01
2017-07-30T05:42:31.628Z,1007.06
2017-07-30T05:43:53.789Z,1007.06
2017-07-30T05:45:15.631Z,1007.05
2017-07-30T05:46:37.721Z,1007.05
2017-07-30T05:47:59.954Z,1007.04
2017-07-30T05:49:22.570Z,1007.01
2017-07-30T05:50:44.102Z,1006.96
2017-07-30T05:52:05.861Z,1006.91
2017-07-30T05:53:28.016Z,1006.87
2017-07-30T05:54:50.171Z,1006.87
2017-07-30T05:56:12.110Z,1006.9
2017-07-30T05:57:33.729Z,1006.86
2017-07-30T05:58:55.579Z,1006.87
2017-07-30T06:00:17.744Z,1006.85
2017-07-30T06:01:40.020Z,1006.85
2017-07-30T06:03:02.602Z,1006.85
2017-07-30T06:04:25.098Z,1006.89
2017-07-30T06:05:47.054Z,1006.85
2017-07-30T06:07:09.548Z,1006.85
2017-07-30T06:08:31.381Z,1006.84
2017-07-30T06:09:53.549Z,1006.85
2017-07-30T06:11:15.404Z,1006.83
2017-07-30T06:12:36.925Z,1006.85
2017-07-30T06:13:59.665Z,1006.86
2017-07-30T06:15:21.824Z,1006.86
2017-07-30T06:16:43.701Z,1006.86
2017-07-30T06:18:05.793Z,1006.81
2017-07-30T06:19:27.568Z,1006.83
2017-07-30T06:20:49.730Z,1006.82
2017-07-30T06:22:11.672Z,1006.83
2017-07-30T06:23:33.827Z,1006.72
2017-07-30T06:24:56.590Z,1006.72
2017-07-30T06:26:18.503Z,1006.68
2017-07-30T06:27:40.658Z,1006.85
2017-07-30T06:29:02.552Z,1006.78
2017-07-30T06:30:24.316Z,1006.82
2017-07-30T06:31:45.852Z,1006.66
2017-07-30T06:33:07.067Z,1006.59
2017-07-30T06:34:28.282Z,1006.63
2017-07-30T06:35:50.952Z,1006.65
2017-07-30T06:37:12.532Z,1006.58
2017-07-30T06:38:34.417Z,1006.6
2017-07-30T06:39:56.579Z,1006.62
2017-07-30T06:41:19.032Z,1006.55
2017-07-30T06:42:41.201Z,1006.64
2017-07-30T06:44:02.730Z,1006.6
2017-07-30T06:45:24.576Z,1006.63
2017-07-30T06:46:46.739Z,1006.59
2017-07-30T06:48:09.201Z,1006.53
2017-07-30T06:49:31.700Z,1006.58
2017-07-30T06:50:53.547Z,1006.52
2017-07-30T06:52:15.648Z,1006.55
2017-07-30T06:53:37.722Z,1006.57
2017-07-30T06:55:00.203Z,1006.49
2017-07-30T06:56:22.162Z,1006.44
2017-07-30T06:57:45.051Z,1006.47
2017-07-30T06:59:07.587Z,1006.6
2017-07-30T07:00:29.490Z,1006.63
2017-07-30T07:01:51.671Z,1006.67
2017-07-30T07:03:13.783Z,1006.64
2017-07-30T07:04:35.331Z,1006.62
2017-07-30T07:05:57.480Z,1006.62
2017-07-30T07:07:19.010Z,1006.61
2017-07-30T07:08:41.107Z,1006.68
2017-07-30T07:10:02.950Z,1006.72
2017-07-30T07:11:25.461Z,1006.92
2017-07-30T07:12:47.981Z,1006.66
2017-07-30T07:14:09.848Z,1006.79
2017-07-30T07:15:32.010Z,1006.78
2017-07-30T07:16:54.527Z,1006.68
2017-07-30T07:18:16.054Z,1006.81
2017-07-30T07:19:38.265Z,1007
2017-07-30T07:21:00.565Z,1007.01
2017-07-30T07:22:22.417Z,1006.89
2017-07-30T07:23:44.271Z,1006.54
2017-07-30T07:25:06.090Z,1006.48
2017-07-30T07:26:27.940Z,1006.92
2017-07-30T07:27:49.791Z,1006.75
2017-07-30T07:29:12.052Z,1006.49
2017-07-30T07:30:34.550Z,1006.61
2017-07-30T07:31:55.775Z,1006.64
2017-07-30T07:33:18.021Z,1006.6
2017-07-30T07:34:40.203Z,1006.64
2017-07-30T07:36:02.992Z,1006.73
2017-07-30T07:37:24.850Z,1006.69
2017-07-30T07:38:46.381Z,1006.7
2017-07-30T07:40:08.856Z,1006.61
2017-07-30T07:41:31.470Z,1006.61
2017-07-30T07:42:53.618Z,1006.68
2017-07-30T07:44:15.552Z,1006.62
2017-07-30T07:45:37.460Z,1006.63
2017-07-30T07:46:59.303Z,1006.6
2017-07-30T07:48:21.500Z,1006.59
2017-07-30T07:49:43.789Z,1006.66
2017-07-30T07:51:05.316Z,1006.65
2017-07-30T07:52:27.550Z,1006.67
2017-07-30T07:53:49.751Z,1006.74
2017-07-30T07:55:11.930Z,1006.78
2017-07-30T07:56:33.790Z,1006.8
2017-07-30T07:57:55.730Z,1006.83
2017-07-30T07:59:17.942Z,1007.06
2017-07-30T08:00:39.931Z,1006.91
2017-07-30T08:02:01.469Z,1006.68
2017-07-30T08:03:24.251Z,1006.65
2017-07-30T08:04:46.549Z,1006.64
2017-07-30T08:06:09.023Z,1006.69
2017-07-30T08:07:31.302Z,1006.77
2017-07-30T08:08:53.720Z,1007.02
2017-07-30T08:10:15.581Z,1006.85
2017-07-30T08:11:37.763Z,1006.68
2017-07-30T08:12:59.627Z,1006.64
2017-07-30T08:14:22.450Z,1006.69
2017-07-30T08:15:44.626Z,1006.68
2017-07-30T08:17:06.802Z,1006.65
2017-07-30T08:18:29.350Z,1006.63
2017-07-30T08:19:51.193Z,1006.64
2017-07-30T08:21:13.731Z,1006.58
2017-07-30T08:22:36.039Z,1006.67
2017-07-30T08:23:57.884Z,1006.69
2017-07-30T08:25:20.024Z,1006.7
2017-07-30T08:26:41.944Z,1006.65
2017-07-30T08:28:03.839Z,1006.7
2017-07-30T08:29:25.377Z,1006.65
2017-07-30T08:30:47.905Z,1006.67
2017-07-30T08:32:09.754Z,1006.63
2017-07-30T08:33:32.234Z,1006.65
2017-07-30T08:34:53.771Z,1006.58
2017-07-30T08:36:15.971Z,1006.54
2017-07-30T08:37:38.508Z,1006.62
2017-07-30T08:39:00.052Z,1006.62
2017-07-30T08:40:21.959Z,1006.59
2017-07-30T08:41:44.690Z,1006.62
2017-07-30T08:43:06.560Z,1006.61
2017-07-30T08:44:29.069Z,1006.56
2017-07-30T08:45:51.244Z,1006.62
2017-07-30T08:47:14.090Z,1006.62
2017-07-30T08:48:35.661Z,1006.63
2017-07-30T08:49:57.835Z,1006.59
2017-07-30T08:51:19.362Z,1006.58
2017-07-30T08:52:41.792Z,1006.54
2017-07-30T08:54:03.962Z,1006.52
2017-07-30T08:55:25.810Z,1006.61
2017-07-30T08:56:48.113Z,1006.59
2017-07-30T08:58:10.578Z,1006.58
2017-07-30T08:59:32.480Z,1006.63
2017-07-30T09:00:54.662Z,1006.63
2017-07-30T09:02:16.851Z,1006.55
2017-07-30T09:03:39.580Z,1006.52
2017-07-30T09:05:01.762Z,1006.58
2017-07-30T09:06:23.920Z,1006.54
2017-07-30T09:07:46.412Z,1006.63
2017-07-30T09:09:08.520Z,1006.71
2017-07-30T09:10:29.855Z,1006.64
2017-07-30T09:11:52.347Z,1006.71
2017-07-30T09:13:14.526Z,1006.74
2017-07-30T09:14:36.716Z,1006.6
2017-07-30T09:15:58.989Z,1006.54
2017-07-30T09:17:20.849Z,1006.55
2017-07-30T09:18:43.140Z,1006.53
2017-07-30T09:20:05.820Z,1006.56
2017-07-30T09:21:27.679Z,1006.58
2017-07-30T09:22:49.519Z,1006.63
2017-07-30T09:24:11.755Z,1006.61
2017-07-30T09:25:33.549Z,1006.56
2017-07-30T09:26:55.377Z,1006.53
2017-07-30T09:28:17.541Z,1006.56
2017-07-30T09:29:39.420Z,1006.5
2017-07-30T09:31:01.873Z,1006.55
2017-07-30T09:32:24.103Z,1006.58
2017-07-30T09:33:46.269Z,1006.65
2017-07-30T09:35:08.436Z,1006.68
2017-07-30T09:36:30.601Z,1006.73
2017-07-30T09:37:52.242Z,1006.61
2017-07-30T09:39:14.469Z,1006.64
2017-07-30T09:40:36.640Z,1006.7
2017-07-30T09:41:59.110Z,1006.65
2017-07-30T09:43:21.606Z,1006.58
2017-07-30T09:44:44.210Z,1006.58
2017-07-30T09:46:06.710Z,1006.58
2017-07-30T09:47:29.157Z,1006.6
2017-07-30T09:48:51.364Z,1006.6
2017-07-30T09:50:14.044Z,1006.62
2017-07-30T09:51:36.580Z,1006.75
2017-07-30T09:52:59.330Z,1006.68
2017-07-30T09:54:21.541Z,1006.72
2017-07-30T09:55:44.080Z,1006.7
2017-07-30T09:57:05.960Z,1006.8
2017-07-30T09:58:28.738Z,1006.79
2017-07-30T09:59:51.229Z,1006.78
2017-07-30T10:01:13.087Z,1006.84
2017-07-30T10:02:35.350Z,1006.85
2017-07-30T10:03:57.989Z,1006.83
2017-07-30T10:05:20.176Z,1006.68
2017-07-30T10:06:41.419Z,1006.82
2017-07-30T10:08:03.955Z,1006.91
2017-07-30T10:09:26.480Z,1006.91
2017-07-30T10:10:48.430Z,1006.89
2017-07-30T10:12:10.600Z,1006.9
2017-07-30T10:13:32.802Z,1006.88
2017-07-30T10:14:55.598Z,1006.92
2017-07-30T10:16:17.841Z,1006.95
2017-07-30T10:17:40.330Z,1006.92
2017-07-30T10:19:02.498Z,1006.92
2017-07-30T10:20:24.933Z,1006.93
2017-07-30T10:21:47.109Z,1006.88
2017-07-30T10:23:09.598Z,1006.93
2017-07-30T10:24:31.779Z,1006.95
2017-07-30T10:25:54.618Z,1006.86
2017-07-30T10:27:16.472Z,1006.86
2017-07-30T10:28:38.572Z,1006.92
2017-07-30T10:30:01.108Z,1006.85
2017-07-30T10:31:23.628Z,1006.96
2017-07-30T10:32:45.489Z,1007.16
2017-07-30T10:34:07.669Z,1007.17
2017-07-30T10:35:29.864Z,1007.18
2017-07-30T10:36:51.697Z,1006.99
2017-07-30T10:38:13.913Z,1007.04
2017-07-30T10:39:36.101Z,1007.05
2017-07-30T10:40:58.353Z,1007.11
2017-07-30T10:42:20.533Z,1007.16
2017-07-30T10:43:42.730Z,1007.12
2017-07-30T10:45:05.196Z,1007.28
2017-07-30T10:46:27.060Z,1007.17
2017-07-30T10:47:48.847Z,1007.18
2017-07-30T10:49:10.391Z,1007.3
2017-07-30T10:50:32.239Z,1007.35
2017-07-30T10:51:54.774Z,1007.3
2017-07-30T10:53:17.229Z,1007.27
2017-07-30T10:54:39.422Z,1007.25
2017-07-30T10:56:01.926Z,1007.31
2017-07-30T10:57:24.452Z,1007.27
2017-07-30T10:58:46.749Z,1007.25
2017-07-30T11:00:08.606Z,1007.12
2017-07-30T11:01:30.845Z,1007.22
2017-07-30T11:02:53.151Z,1007.18
2017-07-30T11:04:15.890Z,1007.17
2017-07-30T11:05:38.370Z,1007.24
2017-07-30T11:07:00.671Z,1007.16
2017-07-30T11:08:22.831Z,1007.25
2017-07-30T11:09:45.760Z,1007.21
2017-07-30T11:11:07.929Z,1007.25
2017-07-30T11:12:30.197Z,1007.23
2017-07-30T11:13:52.434Z,1007.21
2017-07-30T11:15:14.924Z,1007.25
2017-07-30T11:16:37.619Z,1007.24
2017-07-30T11:17:59.964Z,1007.26
2017-07-30T11:19:22.149Z,1007.1
2017-07-30T11:20:44.956Z,1007.16
2017-07-30T11:22:07.541Z,1007.27
2017-07-30T11:23:30.049Z,1007.19
2017-07-30T11:24:52.563Z,1007.31
2017-07-30T11:26:14.800Z,1007.28
2017-07-30T11:27:37.427Z,1007.25
2017-07-30T11:28:59.934Z,1007.3
2017-07-30T11:30:22.118Z,1007.36
2017-07-30T11:31:44.869Z,1007.28
2017-07-30T11:33:07.381Z,1007.36
2017-07-30T11:34:29.621Z,1007.36
2017-07-30T11:35:51.814Z,1007.41
2017-07-30T11:37:13.953Z,1007.42
2017-07-30T11:38:36.119Z,1007.43
2017-07-30T11:39:57.974Z,1007.51
2017-07-30T11:41:19.542Z,1007.5
2017-07-30T11:42:42.357Z,1007.48
2017-07-30T11:44:04.550Z,1007.53
2017-07-30T11:45:26.150Z,1007.52
2017-07-30T11:46:48.812Z,1007.5
2017-07-30T11:48:10.940Z,1007.59
2017-07-30T11:49:32.810Z,1007.57
2017-07-30T11:50:55.087Z,1007.48
2017-07-30T11:52:16.960Z,1007.55
2017-07-30T11:53:39.130Z,1007.59
2017-07-30T11:55:01.644Z,1007.57
2017-07-30T11:56:24.294Z,1007.53
2017-07-30T11:57:46.448Z,1007.57
2017-07-30T11:59:09.300Z,1007.56
2017-07-30T12:00:31.479Z,1007.63
2017-07-30T12:01:54.071Z,1007.64
2017-07-30T12:03:16.273Z,1007.67
2017-07-30T12:04:38.819Z,1007.71
2017-07-30T12:06:00.698Z,1007.65
2017-07-30T12:07:23.221Z,1007.71
2017-07-30T12:08:45.851Z,1007.61
2017-07-30T12:10:08.669Z,1007.61
2017-07-30T12:11:31.169Z,1007.61
2017-07-30T12:12:53.031Z,1007.63
2017-07-30T12:14:14.910Z,1007.59
2017-07-30T12:15:37.783Z,1007.7
2017-07-30T12:17:00.278Z,1007.59
2017-07-30T12:18:22.450Z,1007.65
2017-07-30T12:19:44.650Z,1007.61
2017-07-30T12:21:07.113Z,1007.65
2017-07-30T12:22:29.321Z,1007.6
2017-07-30T12:23:51.501Z,1007.54
2017-07-30T12:25:13.692Z,1007.58
2017-07-30T12:26:36.482Z,1007.5
2017-07-30T12:27:59.203Z,1007.51
2017-07-30T12:29:21.120Z,1007.47
2017-07-30T12:30:43.620Z,1007.5
2017-07-30T12:32:05.768Z,1007.55
2017-07-30T12:33:28.069Z,1007.37
2017-07-30T12:34:50.274Z,1007.49
2017-07-30T12:36:12.580Z,1007.46
2017-07-30T12:37:35.321Z,1007.46
2017-07-30T12:38:57.539Z,1007.48
2017-07-30T12:40:19.752Z,1007.51
2017-07-30T12:41:42.411Z,1007.56
2017-07-30T12:43:05.179Z,1007.48
2017-07-30T12:44:27.680Z,1007.49
2017-07-30T12:45:50.238Z,1007.4
2017-07-30T12:47:12.819Z,1007.29
2017-07-30T12:48:35.294Z,1007.37
2017-07-30T12:49:57.796Z,1007.36
2017-07-30T12:51:20.372Z,1007.34
2017-07-30T12:52:42.908Z,1007.37
2017-07-30T12:54:05.329Z,1007.38
2017-07-30T12:55:27.613Z,1007.32
2017-07-30T12:56:50.119Z,1007.4
2017-07-30T12:58:12.609Z,1007.31
2017-07-30T12:59:35.086Z,1007.33
2017-07-30T13:00:57.301Z,1007.36
2017-07-30T13:02:19.567Z,1007.42
2017-07-30T13:03:41.989Z,1007.54
2017-07-30T13:05:04.175Z,1007.38
2017-07-30T13:06:26.370Z,1007.47
2017-07-30T13:07:47.602Z,1007.45
2017-07-30T13:09:09.815Z,1007.36
2017-07-30T13:10:32.618Z,1007.53
2017-07-30T13:11:54.180Z,1007.5
2017-07-30T13:13:16.477Z,1007.59
2017-07-30T13:14:38.660Z,1007.57
2017-07-30T13:16:01.473Z,1007.55
2017-07-30T13:17:23.969Z,1007.56
2017-07-30T13:18:46.160Z,1007.61
2017-07-30T13:20:08.691Z,1007.65
2017-07-30T13:21:31.479Z,1007.77
2017-07-30T13:22:53.720Z,1007.63
2017-07-30T13:24:15.611Z,1007.68
2017-07-30T13:25:37.792Z,1007.79
2017-07-30T13:27:00.549Z,1007.87
2017-07-30T13:28:22.739Z,1007.82
2017-07-30T13:29:45.234Z,1007.68
2017-07-30T13:31:07.118Z,1007.87
2017-07-30T13:32:29.604Z,1007.77
2017-07-30T13:33:51.769Z,1007.86
2017-07-30T13:35:14.042Z,1007.87
2017-07-30T13:36:36.568Z,1007.86
2017-07-30T13:37:59.132Z,1007.92
2017-07-30T13:39:21.758Z,1007.9
2017-07-30T13:40:43.939Z,1007.95
2017-07-30T13:42:05.539Z,1007.98
2017-07-30T13:43:27.978Z,1007.96
2017-07-30T13:44:49.548Z,1008.02
2017-07-30T13:46:11.739Z,1007.99
2017-07-30T13:47:33.949Z,1008.01
2017-07-30T13:48:56.417Z,1008.02
2017-07-30T13:50:18.635Z,1008.05
2017-07-30T13:51:40.800Z,1008.12
2017-07-30T13:53:03.008Z,1008.17
2017-07-30T13:54:25.478Z,1008.17
2017-07-30T13:55:47.660Z,1008.18
2017-07-30T13:57:09.928Z,1008.28
2017-07-30T13:58:31.819Z,1008.21
2017-07-30T13:59:54.604Z,1008.25
2017-07-30T14:01:16.817Z,1008.24
2017-07-30T14:02:38.978Z,1008.22
2017-07-30T14:04:00.908Z,1008.27
2017-07-30T14:05:23.098Z,1008.28
2017-07-30T14:06:45.328Z,1008.22
2017-07-30T14:08:07.509Z,1008.18
2017-07-30T14:09:30.127Z,1008.25
2017-07-30T14:10:52.939Z,1008.21
2017-07-30T14:12:15.438Z,1008.2
2017-07-30T14:13:37.627Z,1008.23
2017-07-30T14:14:59.877Z,1008.2
2017-07-30T14:16:22.120Z,1008.2
2017-07-30T14:17:44.380Z,1008.15
2017-07-30T14:19:06.879Z,1008.19
2017-07-30T14:20:29.220Z,1008.2
2017-07-30T14:21:51.331Z,1008.2
2017-07-30T14:23:13.510Z,1008.25
2017-07-30T14:24:36.039Z,1008.32
2017-07-30T14:25:58.300Z,1008.29
2017-07-30T14:27:21.085Z,1008.25
2017-07-30T14:28:43.354Z,1008.3
2017-07-30T14:30:05.680Z,1008.23
2017-07-30T14:31:27.865Z,1008.24
2017-07-30T14:32:50.609Z,1008.23
2017-07-30T14:34:12.599Z,1008.29
2017-07-30T14:35:34.799Z,1008.27
2017-07-30T14:36:57.071Z,1008.3
2017-07-30T14:38:19.294Z,1008.25
2017-07-30T14:39:41.148Z,1008.37
2017-07-30T14:41:03.684Z,1008.44
2017-07-30T14:42:25.853Z,1008.36
2017-07-30T14:43:48.454Z,1008.41
2017-07-30T14:45:10.639Z,1008.37
2017-07-30T14:46:33.152Z,1008.44
2017-07-30T14:47:55.691Z,1008.45
2017-07-30T14:49:18.221Z,1008.52
2017-07-30T14:50:40.760Z,1008.48
2017-07-30T14:52:03.295Z,1008.59
2017-07-30T14:53:25.786Z,1008.47
2017-07-30T14:54:48.229Z,1008.59
2017-07-30T14:56:10.212Z,1008.58
2017-07-30T14:57:32.421Z,1008.58
2017-07-30T14:58:54.620Z,1008.64
2017-07-30T15:00:17.375Z,1008.75
2017-07-30T15:01:40.052Z,1008.74
2017-07-30T15:03:01.259Z,1008.8
2017-07-30T15:04:23.436Z,1008.75
2017-07-30T15:05:46.273Z,1008.8
2017-07-30T15:07:08.770Z,1008.93
2017-07-30T15:08:30.956Z,1008.91
2017-07-30T15:09:53.147Z,1009.04
2017-07-30T15:11:15.641Z,1009.13
2017-07-30T15:12:38.239Z,1009.07
2017-07-30T15:14:00.455Z,1009.17
2017-07-30T15:15:22.643Z,1009.3
2017-07-30T15:16:45.145Z,1009.34
2017-07-30T15:18:07.075Z,1009.22
2017-07-30T15:19:28.960Z,1009.3
2017-07-30T15:20:50.815Z,1009.25
2017-07-30T15:22:13.228Z,1009.3
2017-07-30T15:23:35.843Z,1009.38
2017-07-30T15:24:58.050Z,1009.3
2017-07-30T15:26:20.574Z,1009.34
2017-07-30T15:27:43.339Z,1009.33
2017-07-30T15:29:05.830Z,1009.35
2017-07-30T15:30:28.394Z,1009.42
2017-07-30T15:31:50.730Z,1009.48
2017-07-30T15:33:12.891Z,1009.43
2017-07-30T15:34:34.817Z,1009.5
2017-07-30T15:35:56.699Z,1009.55
2017-07-30T15:37:19.197Z,1009.43
2017-07-30T15:38:41.730Z,1009.6
2017-07-30T15:40:03.599Z,1009.63
2017-07-30T15:41:25.931Z,1009.54
2017-07-30T15:42:48.460Z,1009.56
2017-07-30T15:44:10.897Z,1009.56
2017-07-30T15:45:33.378Z,1009.62
2017-07-30T15:46:55.628Z,1009.68
2017-07-30T15:48:18.197Z,1009.6
2017-07-30T15:49:41.041Z,1009.54
2017-07-30T15:51:03.233Z,1009.46
2017-07-30T15:52:25.142Z,1009.43
2017-07-30T15:53:46.657Z,1009.43
2017-07-30T15:55:09.183Z,1009.4
2017-07-30T15:56:32.188Z,1009.43
2017-07-30T15:57:54.798Z,1009.43
2017-07-30T15:59:17.320Z,1009.47
2017-07-30T16:00:39.819Z,1009.43
2017-07-30T16:02:01.368Z,1009.46
2017-07-30T16:03:23.562Z,1009.48
2017-07-30T16:04:45.519Z,1009.45
2017-07-30T16:06:08.038Z,1009.52
2017-07-30T16:07:30.209Z,1009.58
2017-07-30T16:08:52.395Z,1009.68
2017-07-30T16:10:14.599Z,1009.62
2017-07-30T16:11:37.518Z,1009.72
2017-07-30T16:12:59.726Z,1009.74
2017-07-30T16:14:22.221Z,1009.68
2017-07-30T16:15:44.426Z,1009.83
2017-07-30T16:17:06.960Z,1009.84
2017-07-30T16:18:29.513Z,1009.94
2017-07-30T16:19:51.708Z,1010.02
2017-07-30T16:21:14.232Z,1009.96
2017-07-30T16:22:36.988Z,1009.99
2017-07-30T16:23:59.500Z,1010.1
2017-07-30T16:25:22.010Z,1010.1
2017-07-30T16:26:44.669Z,1010.13
2017-07-30T16:28:07.569Z,1010.21
2017-07-30T16:29:30.074Z,1010.17
2017-07-30T16:30:52.080Z,1010.18
2017-07-30T16:32:14.596Z,1010.23
2017-07-30T16:33:37.481Z,1010.31
2017-07-30T16:34:59.757Z,1010.35
2017-07-30T16:36:21.993Z,1010.37
2017-07-30T16:37:44.566Z,1010.34